Broadmeadows, Australia
Current Conditions -  °F | °C
As of 5:00 AM on Friday 26 Dec 2014 (Local Time) from YMEN Reporting Station
Clear Clear  
Wind Chill: 50°   Ceiling: Unl
Heat Index: 50°   Visibility: 6mi
Dew Point: 45°   Wind: 13mph
Humidity: 82%   Direction: 270°W
Pressure: 29.88"   Gusts: NA
Location:  37.68°S, 144.92°E
Report Text: YMEN 251800Z AUTO 27011KT 9999 // NCD 10/07 Q1012
Loading
Personal Weather Stations






























Interactive Weather Map New forecast layout! Learn more

10-Day Weather Forecast

Advertisements
Track Severe Weather on mobile